createdAt,value
2022-08-25T00:01:23.336Z,23.18
2022-08-25T00:03:53.791Z,23.11
2022-08-25T00:06:21.590Z,23.14
2022-08-25T00:08:48.467Z,23.05
2022-08-25T00:11:21.857Z,23.07
2022-08-25T00:13:51.940Z,23.07
2022-08-25T00:16:19.801Z,23.11
2022-08-25T00:18:53.730Z,23.10
2022-08-25T00:21:42.128Z,23.07
2022-08-25T00:24:29.072Z,22.99
2022-08-25T00:27:15.617Z,23.03
2022-08-25T00:30:02.340Z,22.98
2022-08-25T00:32:55.056Z,22.94
2022-08-25T00:35:44.900Z,22.79
2022-08-25T00:38:12.544Z,22.93
2022-08-25T00:40:40.967Z,22.85
2022-08-25T00:43:08.411Z,22.71
2022-08-25T00:45:35.620Z,22.74
2022-08-25T00:48:02.558Z,22.59
2022-08-25T00:50:31.731Z,22.66
2022-08-25T00:53:01.964Z,22.61
2022-08-25T00:55:36.681Z,22.67
2022-08-25T00:58:14.298Z,22.66
2022-08-25T01:00:45.639Z,22.55
2022-08-25T01:03:12.993Z,22.64
2022-08-25T01:05:41.884Z,22.67
2022-08-25T01:08:09.791Z,22.68
2022-08-25T01:10:39.326Z,22.55
2022-08-25T01:13:19.612Z,22.58
2022-08-25T01:15:48.834Z,22.68
2022-08-25T01:18:15.813Z,22.73
2022-08-25T01:20:43.149Z,22.77
2022-08-25T01:23:10.780Z,22.73
2022-08-25T01:26:13.406Z,22.73
2022-08-25T01:29:02.082Z,22.78
2022-08-25T01:31:30.192Z,22.70
2022-08-25T01:33:58.649Z,22.67
2022-08-25T01:36:28.153Z,22.66
2022-08-25T01:38:55.524Z,22.58
2022-08-25T01:41:29.729Z,22.64
2022-08-25T01:43:56.420Z,22.60
2022-08-25T01:46:26.374Z,22.54
2022-08-25T01:48:53.239Z,22.50
2022-08-25T01:51:24.417Z,22.47
2022-08-25T01:53:50.992Z,22.45
2022-08-25T01:56:18.455Z,22.38
2022-08-25T01:58:49.155Z,22.37
2022-08-25T02:01:22.321Z,22.33
2022-08-25T02:03:56.014Z,22.34
2022-08-25T02:06:32.139Z,22.25
2022-08-25T02:09:05.423Z,22.32
2022-08-25T02:11:32.796Z,22.26
2022-08-25T02:14:00.059Z,22.27
2022-08-25T02:16:30.734Z,22.22
2022-08-25T02:18:59.123Z,22.19
2022-08-25T02:21:28.979Z,22.23
2022-08-25T02:23:56.877Z,22.21
2022-08-25T02:26:23.858Z,22.16
2022-08-25T02:28:52.398Z,22.17
2022-08-25T02:31:22.554Z,22.04
2022-08-25T02:33:49.515Z,22.12
2022-08-25T02:36:16.704Z,22.11
2022-08-25T02:38:43.787Z,22.15
2022-08-25T02:41:14.433Z,22.13
2022-08-25T02:43:42.475Z,22.06
2022-08-25T02:46:11.668Z,22.02
2022-08-25T02:48:39.625Z,22.00
2022-08-25T02:51:08.929Z,21.98
2022-08-25T02:53:40.759Z,21.97
2022-08-25T02:56:11.396Z,21.86
2022-08-25T02:58:39.987Z,21.86
2022-08-25T03:01:09.558Z,21.87
2022-08-25T03:03:39.314Z,21.82
2022-08-25T03:06:12.438Z,21.71
2022-08-25T03:08:39.440Z,21.75
2022-08-25T03:11:07.568Z,21.77
2022-08-25T03:13:35.080Z,21.70
2022-08-25T03:16:04.236Z,21.66
2022-08-25T03:18:31.622Z,21.67
2022-08-25T03:20:59.000Z,21.55
2022-08-25T03:23:28.746Z,21.58
2022-08-25T03:26:15.192Z,21.58
2022-08-25T03:28:41.985Z,21.49
2022-08-25T03:31:09.216Z,21.49
2022-08-25T03:33:37.055Z,21.48
2022-08-25T03:36:03.918Z,21.32
2022-08-25T03:38:30.355Z,21.34
2022-08-25T03:40:57.727Z,21.36
2022-08-25T03:43:24.557Z,21.39
2022-08-25T03:45:51.438Z,21.29
2022-08-25T03:48:18.483Z,21.22
2022-08-25T03:50:50.615Z,21.26
2022-08-25T03:53:20.374Z,21.31
2022-08-25T03:55:47.482Z,21.28
2022-08-25T03:58:14.797Z,21.08
2022-08-25T04:00:42.331Z,21.17
2022-08-25T04:03:08.955Z,21.05
2022-08-25T04:05:35.802Z,21.11
2022-08-25T04:08:03.261Z,21.01
2022-08-25T04:10:30.107Z,21.05
2022-08-25T04:12:56.932Z,21.02
2022-08-25T04:15:28.558Z,20.96
2022-08-25T04:17:58.711Z,20.85
2022-08-25T04:20:25.916Z,20.87
2022-08-25T04:22:52.706Z,20.71
2022-08-25T04:25:19.170Z,20.81
2022-08-25T04:27:46.053Z,20.83
2022-08-25T04:30:13.159Z,20.80
2022-08-25T04:32:39.891Z,20.78
2022-08-25T04:35:07.419Z,20.70
2022-08-25T04:37:34.512Z,20.69
2022-08-25T04:40:05.072Z,20.60
2022-08-25T04:42:32.139Z,20.60
2022-08-25T04:44:59.526Z,20.55
2022-08-25T04:47:28.593Z,20.66
2022-08-25T04:49:55.864Z,20.69
2022-08-25T04:52:22.850Z,20.62
2022-08-25T04:54:49.428Z,20.48
2022-08-25T04:57:16.092Z,20.54
2022-08-25T04:59:42.616Z,20.49
2022-08-25T05:02:10.117Z,20.46
2022-08-25T05:04:37.424Z,20.40
2022-08-25T05:07:04.833Z,20.45
2022-08-25T05:09:34.800Z,20.61
2022-08-25T05:12:02.940Z,20.36
2022-08-25T05:14:30.035Z,20.40
2022-08-25T05:16:57.889Z,20.43
2022-08-25T05:19:25.559Z,20.47
2022-08-25T05:21:52.738Z,20.57
2022-08-25T05:24:19.931Z,20.65
2022-08-25T05:26:46.715Z,20.61
2022-08-25T05:29:14.265Z,20.68
2022-08-25T05:31:44.905Z,20.61
2022-08-25T05:34:13.825Z,20.64
2022-08-25T05:36:43.279Z,20.82
2022-08-25T05:39:10.886Z,20.91
2022-08-25T05:41:38.547Z,20.85
2022-08-25T05:44:05.356Z,20.91
2022-08-25T05:46:32.239Z,21.03
2022-08-25T05:48:59.236Z,21.02
2022-08-25T05:51:26.446Z,21.04
2022-08-25T05:53:53.979Z,20.98
2022-08-25T05:56:20.881Z,21.10
2022-08-25T05:58:48.345Z,21.10
2022-08-25T06:01:39.579Z,21.23
2022-08-25T06:04:06.659Z,21.24
2022-08-25T06:06:33.347Z,21.28
2022-08-25T06:09:02.834Z,21.38
2022-08-25T06:11:29.741Z,21.38
2022-08-25T06:13:56.387Z,21.49
2022-08-25T06:16:23.036Z,21.51
2022-08-25T06:18:50.767Z,21.56
2022-08-25T06:21:18.454Z,21.68
2022-08-25T06:23:45.535Z,21.72
2022-08-25T06:26:21.089Z,21.85
2022-08-25T06:28:51.979Z,21.85
2022-08-25T06:31:22.173Z,21.97
2022-08-25T06:33:49.570Z,22.00
2022-08-25T06:36:16.570Z,22.18
2022-08-25T06:38:43.581Z,22.27
2022-08-25T06:41:14.440Z,22.32
2022-08-25T06:43:48.048Z,22.41
2022-08-25T06:46:20.228Z,22.50
2022-08-25T06:48:47.942Z,22.63
2022-08-25T06:51:18.037Z,22.69
2022-08-25T06:53:46.247Z,22.89
2022-08-25T06:56:13.542Z,22.98
2022-08-25T06:58:40.166Z,23.07
2022-08-25T07:01:22.816Z,23.25
2022-08-25T07:03:57.459Z,23.38
2022-08-25T07:06:25.578Z,23.42
2022-08-25T07:08:52.562Z,23.59
2022-08-25T07:11:21.277Z,23.65
2022-08-25T07:13:49.067Z,23.72
2022-08-25T07:16:16.986Z,23.91
2022-08-25T07:18:45.121Z,24.04
2022-08-25T07:21:13.308Z,24.12
2022-08-25T07:23:42.117Z,24.27
2022-08-25T07:26:15.863Z,24.41
2022-08-25T07:28:54.080Z,24.57
2022-08-25T07:31:21.371Z,24.64
2022-08-25T07:34:12.266Z,24.84
2022-08-25T07:36:39.756Z,25.00
2022-08-25T07:39:06.955Z,25.00
2022-08-25T07:41:38.499Z,25.04
2022-08-25T07:44:05.775Z,25.12
2022-08-25T07:46:32.686Z,25.45
2022-08-25T07:49:00.475Z,25.53
2022-08-25T07:53:59.013Z,25.79
2022-08-25T07:56:27.824Z,25.84
2022-08-25T07:58:54.341Z,25.90
2022-08-25T08:01:24.126Z,26.00
2022-08-25T08:03:51.710Z,26.21
2022-08-25T08:06:22.543Z,26.44
2022-08-25T08:08:54.710Z,26.60
2022-08-25T08:11:27.559Z,26.69
2022-08-25T08:13:56.171Z,26.84
2022-08-25T08:16:25.914Z,27.03
2022-08-25T08:18:52.554Z,27.25
2022-08-25T08:21:26.063Z,27.23
2022-08-25T08:23:58.950Z,27.40
2022-08-25T08:26:48.267Z,27.56
2022-08-25T08:29:14.705Z,27.69
2022-08-25T08:31:41.192Z,27.78
2022-08-25T08:34:15.647Z,27.66
2022-08-25T08:36:43.004Z,27.84
2022-08-25T08:39:12.233Z,27.79
2022-08-25T08:42:18.851Z,28.17
2022-08-25T08:44:45.273Z,28.19
2022-08-25T08:47:11.747Z,28.48
2022-08-25T08:49:54.786Z,28.56
2022-08-25T08:52:29.495Z,28.72
2022-08-25T08:55:01.870Z,28.89
2022-08-25T08:57:40.820Z,28.78
2022-08-25T09:00:08.590Z,29.03
2022-08-25T09:02:51.657Z,29.15
2022-08-25T09:05:22.417Z,29.13
2022-08-25T09:08:00.843Z,29.34
2022-08-25T09:10:40.380Z,29.08
2022-08-25T09:13:30.646Z,29.38
2022-08-25T09:16:35.053Z,28.95
2022-08-25T09:19:23.702Z,29.39
2022-08-25T09:22:33.462Z,29.48
2022-08-25T09:25:08.837Z,29.60
2022-08-25T09:28:00.862Z,29.07
2022-08-25T09:30:31.320Z,29.17
2022-08-25T09:33:05.781Z,29.03
2022-08-25T09:35:35.295Z,29.04
2022-08-25T09:38:11.686Z,28.73
2022-08-25T09:40:44.075Z,29.01
2022-08-25T09:43:19.477Z,29.20
2022-08-25T09:45:55.473Z,29.72
2022-08-25T09:48:27.115Z,29.61
2022-08-25T09:51:19.194Z,29.23
2022-08-25T09:53:54.412Z,29.70
2022-08-25T09:56:24.284Z,30.52
2022-08-25T09:58:53.006Z,30.08
2022-08-25T10:01:23.083Z,29.98
2022-08-25T10:03:58.403Z,30.86
2022-08-25T10:06:28.234Z,30.54
2022-08-25T10:09:00.913Z,30.16
2022-08-25T10:11:47.487Z,31.19
2022-08-25T10:14:28.584Z,31.38
2022-08-25T10:17:30.161Z,31.80
2022-08-25T10:20:19.876Z,31.67
2022-08-25T10:22:50.564Z,31.69
2022-08-25T10:25:29.921Z,32.01
2022-08-25T10:28:29.023Z,32.35
2022-08-25T10:31:24.920Z,32.92
2022-08-25T10:34:13.383Z,32.30
2022-08-25T10:36:52.850Z,32.80
2022-08-25T10:39:40.428Z,32.94
2022-08-25T10:42:35.173Z,33.65
2022-08-25T10:45:26.667Z,33.58
2022-08-25T10:48:13.102Z,33.68
2022-08-25T10:50:49.160Z,33.90
2022-08-25T10:53:30.527Z,33.41
2022-08-25T10:56:21.136Z,33.92
2022-08-25T10:58:56.720Z,34.45
2022-08-25T11:01:48.050Z,33.76
2022-08-25T11:04:28.582Z,33.55
2022-08-25T11:07:01.022Z,33.25
2022-08-25T11:09:36.011Z,33.27
2022-08-25T11:12:10.290Z,33.78
2022-08-25T11:14:43.631Z,34.76
2022-08-25T11:17:17.499Z,34.73
2022-08-25T11:19:59.120Z,35.13
2022-08-25T11:22:44.583Z,34.25
2022-08-25T11:25:19.980Z,33.62
2022-08-25T11:28:03.324Z,33.26
2022-08-25T11:30:30.630Z,32.32
2022-08-25T11:33:04.780Z,32.47
2022-08-25T11:35:37.654Z,32.37
2022-08-25T11:38:42.448Z,32.80
2022-08-25T11:41:15.260Z,32.89
2022-08-25T11:44:15.806Z,33.21
2022-08-25T11:47:15.916Z,32.75
2022-08-25T11:49:58.091Z,33.03
2022-08-25T11:52:34.680Z,32.86
2022-08-25T11:55:12.094Z,32.71
2022-08-25T11:57:40.373Z,32.91
2022-08-25T12:00:41.029Z,33.03
2022-08-25T12:03:33.937Z,32.82
2022-08-25T12:06:24.978Z,32.93
2022-08-25T12:08:57.619Z,33.21
2022-08-25T12:11:42.736Z,33.19
2022-08-25T12:14:22.008Z,34.56
2022-08-25T12:16:51.825Z,34.40
2022-08-25T12:19:36.358Z,33.84
2022-08-25T12:22:04.079Z,34.37
2022-08-25T12:24:48.154Z,35.41
2022-08-25T12:28:02.299Z,35.77
2022-08-25T12:30:50.657Z,35.52
2022-08-25T12:33:29.984Z,35.71
2022-08-25T12:36:03.383Z,35.67
2022-08-25T12:38:34.972Z,36.30
2022-08-25T12:41:10.536Z,35.00
2022-08-25T12:43:42.287Z,34.37
2022-08-25T12:46:21.396Z,34.57
2022-08-25T12:48:55.338Z,33.99
2022-08-25T12:51:48.580Z,34.25
2022-08-25T12:54:36.800Z,34.12
2022-08-25T12:57:37.942Z,34.83
2022-08-25T13:00:21.143Z,34.45
2022-08-25T13:03:15.911Z,34.18
2022-08-25T13:05:45.924Z,34.02
2022-08-25T13:08:33.615Z,33.82
2022-08-25T13:11:25.262Z,34.23
2022-08-25T13:14:01.964Z,34.00
2022-08-25T13:16:30.119Z,34.19
2022-08-25T13:19:01.425Z,35.28
2022-08-25T13:21:41.509Z,35.19
2022-08-25T13:24:30.102Z,34.60
2022-08-25T13:27:00.882Z,34.11
2022-08-25T13:29:55.720Z,34.08
2022-08-25T13:32:32.363Z,33.99
2022-08-25T13:35:17.665Z,33.98
2022-08-25T13:37:46.535Z,33.78
2022-08-25T13:40:24.508Z,33.79
2022-08-25T13:43:05.579Z,33.72
2022-08-25T13:45:41.138Z,34.21
2022-08-25T13:48:20.987Z,35.51
2022-08-25T13:50:51.686Z,36.64
2022-08-25T13:53:25.249Z,36.80
2022-08-25T13:56:02.959Z,35.79
2022-08-25T13:58:44.699Z,35.11
2022-08-25T14:01:22.975Z,36.83
2022-08-25T14:04:27.792Z,36.26
2022-08-25T14:07:25.812Z,36.16
2022-08-25T14:09:58.866Z,35.58
2022-08-25T14:12:45.304Z,35.52
2022-08-25T14:15:17.988Z,35.49
2022-08-25T14:17:48.622Z,36.70
2022-08-25T14:20:27.069Z,37.77
2022-08-25T14:22:58.016Z,38.41
2022-08-25T14:25:26.625Z,38.77
2022-08-25T14:28:07.727Z,39.20
2022-08-25T14:30:38.967Z,39.79
2022-08-25T14:33:06.848Z,39.73
2022-08-25T14:35:34.394Z,39.08
2022-08-25T14:38:11.189Z,39.55
2022-08-25T14:40:38.519Z,39.95
2022-08-25T14:43:09.531Z,39.72
2022-08-25T14:45:40.287Z,39.95
2022-08-25T14:48:10.880Z,40.60
2022-08-25T14:50:41.157Z,39.67
2022-08-25T14:53:10.372Z,39.23
2022-08-25T14:55:37.666Z,38.21
2022-08-25T14:58:04.550Z,37.79
2022-08-25T15:00:36.561Z,37.20
2022-08-25T15:03:06.343Z,36.89
2022-08-25T15:05:33.022Z,36.88
2022-08-25T15:08:18.165Z,36.46
2022-08-25T15:10:45.854Z,36.48
2022-08-25T15:13:14.056Z,36.27
2022-08-25T15:15:52.744Z,36.29
2022-08-25T15:18:21.816Z,36.11
2022-08-25T15:20:50.105Z,36.15
2022-08-25T15:23:18.402Z,36.15
2022-08-25T15:25:47.524Z,35.84
2022-08-25T15:28:17.318Z,36.38
2022-08-25T15:30:45.584Z,36.26
2022-08-25T15:33:13.362Z,35.88
2022-08-25T15:35:40.577Z,35.93
2022-08-25T15:38:08.512Z,35.72
2022-08-25T15:40:37.679Z,37.35
2022-08-25T15:43:05.125Z,38.10
2022-08-25T15:45:32.022Z,38.68
2022-08-25T15:47:59.391Z,38.49
2022-08-25T15:50:26.962Z,38.92
2022-08-25T15:52:53.787Z,39.20
2022-08-25T15:55:20.885Z,38.33
2022-08-25T15:57:49.697Z,39.02
2022-08-25T16:00:17.950Z,39.23
2022-08-25T16:02:45.519Z,38.86
2022-08-25T16:05:13.709Z,37.87
2022-08-25T16:07:43.116Z,38.02
2022-08-25T16:10:12.617Z,38.10
2022-08-25T16:12:39.927Z,37.75
2022-08-25T16:15:09.994Z,38.61
2022-08-25T16:17:40.589Z,38.92
2022-08-25T16:20:07.924Z,39.18
2022-08-25T16:22:40.518Z,38.91
2022-08-25T16:25:07.569Z,38.91
2022-08-25T16:27:40.267Z,39.31
2022-08-25T16:30:11.021Z,39.62
2022-08-25T16:32:40.797Z,39.74
2022-08-25T16:35:11.701Z,39.38
2022-08-25T16:37:40.111Z,39.45
2022-08-25T16:40:08.275Z,39.38
2022-08-25T16:42:35.096Z,39.57
2022-08-25T16:45:01.615Z,39.53
2022-08-25T16:47:28.082Z,39.71
2022-08-25T16:49:55.600Z,39.62
2022-08-25T16:52:44.605Z,39.62
2022-08-25T16:55:16.017Z,40.00
2022-08-25T16:57:47.655Z,39.72
2022-08-25T17:00:17.882Z,39.70
2022-08-25T17:02:46.015Z,39.85
2022-08-25T17:05:14.880Z,39.52
2022-08-25T17:07:41.385Z,39.36
2022-08-25T17:10:12.739Z,39.11
2022-08-25T17:12:40.500Z,38.50
2022-08-25T17:15:07.739Z,37.98
2022-08-25T17:17:37.235Z,37.40
2022-08-25T17:20:04.918Z,36.80
2022-08-25T17:22:31.634Z,36.34
2022-08-25T17:25:00.970Z,36.09
2022-08-25T17:27:28.126Z,35.82
2022-08-25T17:29:55.409Z,35.68
2022-08-25T17:32:28.718Z,35.30
2022-08-25T17:34:56.831Z,35.12
2022-08-25T17:37:24.451Z,34.79
2022-08-25T17:40:02.387Z,34.54
2022-08-25T17:42:30.304Z,34.50
2022-08-25T17:44:57.028Z,34.28
2022-08-25T17:47:23.817Z,34.05
2022-08-25T17:49:50.537Z,33.86
2022-08-25T17:52:17.106Z,33.75
2022-08-25T17:54:43.651Z,33.56
2022-08-25T17:57:10.719Z,33.27
2022-08-25T17:59:40.357Z,32.86
2022-08-25T18:02:09.112Z,32.70
2022-08-25T18:04:38.071Z,32.34
2022-08-25T18:07:05.257Z,32.32
2022-08-25T18:09:32.260Z,32.21
2022-08-25T18:11:58.947Z,31.89
2022-08-25T18:14:25.801Z,31.94
2022-08-25T18:16:53.803Z,31.67
2022-08-25T18:19:21.061Z,31.50
2022-08-25T18:21:48.228Z,31.34
2022-08-25T18:24:14.659Z,31.09
2022-08-25T18:26:41.698Z,31.00
2022-08-25T18:29:11.995Z,31.03
2022-08-25T18:31:40.613Z,30.76
2022-08-25T18:34:10.872Z,30.63
2022-08-25T18:36:39.233Z,30.35
2022-08-25T18:39:31.550Z,30.27
2022-08-25T18:42:01.892Z,30.10
2022-08-25T18:44:28.741Z,30.00
2022-08-25T18:46:55.239Z,30.03
2022-08-25T18:49:21.989Z,29.71
2022-08-25T18:51:53.659Z,29.55
2022-08-25T18:54:23.653Z,29.53
2022-08-25T18:56:52.707Z,29.47
2022-08-25T18:59:20.210Z,29.25
2022-08-25T19:01:50.935Z,29.28
2022-08-25T19:04:17.883Z,29.16
2022-08-25T19:06:44.633Z,29.04
2022-08-25T19:09:11.572Z,28.84
2022-08-25T19:11:38.267Z,28.77
2022-08-25T19:14:05.556Z,28.50
2022-08-25T19:16:41.071Z,28.45
2022-08-25T19:19:13.007Z,28.41
2022-08-25T19:21:40.980Z,28.26
2022-08-25T19:24:09.475Z,28.23
2022-08-25T19:26:36.542Z,28.17
2022-08-25T19:29:09.536Z,28.04
2022-08-25T19:31:37.552Z,28.06
2022-08-25T19:34:08.185Z,27.94
2022-08-25T19:36:35.399Z,27.99
2022-08-25T19:39:03.095Z,27.73
2022-08-25T19:41:31.146Z,27.75
2022-08-25T19:43:59.511Z,27.55
2022-08-25T19:46:32.612Z,27.53
2022-08-25T19:49:07.296Z,27.43
2022-08-25T19:51:37.298Z,27.37
2022-08-25T19:54:04.541Z,27.32
2022-08-25T19:56:32.656Z,27.17
2022-08-25T19:58:59.614Z,27.14
2022-08-25T20:01:26.368Z,27.15
2022-08-25T20:03:53.478Z,27.04
2022-08-25T20:06:23.747Z,27.02
2022-08-25T20:09:00.515Z,26.95
2022-08-25T20:11:29.226Z,26.83
2022-08-25T20:14:00.353Z,26.79
2022-08-25T20:16:30.406Z,26.82
2022-08-25T20:18:57.025Z,26.77
2022-08-25T20:21:24.134Z,26.75
2022-08-25T20:24:09.377Z,26.59
2022-08-25T20:26:36.280Z,26.49
2022-08-25T20:29:04.999Z,26.47
2022-08-25T20:31:32.443Z,26.47
2022-08-25T20:34:00.983Z,26.42
2022-08-25T20:36:30.069Z,26.47
2022-08-25T20:38:57.300Z,26.39
2022-08-25T20:41:25.997Z,26.29
2022-08-25T20:43:52.535Z,26.35
2022-08-25T20:46:19.193Z,26.15
2022-08-25T20:48:45.730Z,26.36
2022-08-25T20:51:13.108Z,26.19
2022-08-25T20:53:42.272Z,26.09
2022-08-25T20:56:15.359Z,26.13
2022-08-25T20:58:42.610Z,25.94
2022-08-25T21:01:14.428Z,25.98
2022-08-25T21:03:43.392Z,26.01
2022-08-25T21:06:14.524Z,25.85
2022-08-25T21:08:46.624Z,25.79
2022-08-25T21:11:15.614Z,25.85
2022-08-25T21:13:42.110Z,25.73
2022-08-25T21:16:09.139Z,25.74
2022-08-25T21:18:36.706Z,25.81
2022-08-25T21:21:12.122Z,25.72
2022-08-25T21:23:39.360Z,25.61
2022-08-25T21:26:06.850Z,25.53
2022-08-25T21:28:34.552Z,25.57
2022-08-25T21:31:02.017Z,25.46
2022-08-25T21:33:28.726Z,25.35
2022-08-25T21:35:55.750Z,25.34
2022-08-25T21:38:22.209Z,25.22
2022-08-25T21:40:48.743Z,25.20
2022-08-25T21:43:15.623Z,25.22
2022-08-25T21:45:46.566Z,25.12
2022-08-25T21:48:13.493Z,24.99
2022-08-25T21:50:41.386Z,25.08
2022-08-25T21:53:09.287Z,25.01
2022-08-25T21:55:41.976Z,24.94
2022-08-25T21:58:08.700Z,24.85
2022-08-25T22:00:36.642Z,24.77
2022-08-25T22:03:03.455Z,24.75
2022-08-25T22:05:29.971Z,24.66
2022-08-25T22:07:56.788Z,24.41
2022-08-25T22:10:23.751Z,24.34
2022-08-25T22:12:50.754Z,24.48
2022-08-25T22:15:18.648Z,24.35
2022-08-25T22:17:46.219Z,24.40
2022-08-25T22:20:17.393Z,24.37
2022-08-25T22:22:44.244Z,24.17
2022-08-25T22:25:13.150Z,24.13
2022-08-25T22:27:39.880Z,23.98
2022-08-25T22:30:07.160Z,23.93
2022-08-25T22:32:34.198Z,23.82
2022-08-25T22:35:01.084Z,23.87
2022-08-25T22:37:28.228Z,23.87
2022-08-25T22:39:57.009Z,23.77
2022-08-25T22:42:25.610Z,23.93
2022-08-25T22:44:54.016Z,23.90
2022-08-25T22:47:20.959Z,23.82
2022-08-25T22:49:47.480Z,23.81
2022-08-25T22:52:14.775Z,23.91
2022-08-25T22:54:41.880Z,23.89
2022-08-25T22:57:09.528Z,23.97
2022-08-25T22:59:36.444Z,23.93
2022-08-25T23:02:03.285Z,23.97
2022-08-25T23:04:29.880Z,23.97
2022-08-25T23:06:56.581Z,23.71
2022-08-25T23:09:23.571Z,23.83
2022-08-25T23:11:51.584Z,23.79
2022-08-25T23:14:18.629Z,23.75
2022-08-25T23:16:45.252Z,23.88
2022-08-25T23:19:14.324Z,23.99
2022-08-25T23:22:03.763Z,24.12
2022-08-25T23:24:31.514Z,24.21
2022-08-25T23:27:00.736Z,24.27
2022-08-25T23:29:27.827Z,24.31
2022-08-25T23:31:55.617Z,24.37
2022-08-25T23:34:22.741Z,24.37
2022-08-25T23:36:49.511Z,24.20
2022-08-25T23:39:16.517Z,23.99
2022-08-25T23:41:43.266Z,23.98
2022-08-25T23:44:11.540Z,23.71
2022-08-25T23:46:38.783Z,23.85
2022-08-25T23:49:08.170Z,23.76
2022-08-25T23:51:38.280Z,23.69
2022-08-25T23:54:09.227Z,23.62
2022-08-25T23:56:44.497Z,23.23
2022-08-25T23:59:12.869Z,23.18
